sensor_id;sensor_type;location;lat;lon;timestamp;P1;durP1;ratioP1;P2;durP2;ratioP2
49450;SDS011;35336;48.400;10.886;2023-11-19T00:00:10;1.80;;;1.60;;
49450;SDS011;35336;48.400;10.886;2023-11-19T00:00:26;1.60;;;1.50;;
49450;SDS011;35336;48.400;10.886;2023-11-19T00:00:41;1.70;;;1.60;;
49450;SDS011;35336;48.400;10.886;2023-11-19T00:00:56;2.20;;;1.60;;
49450;SDS011;35336;48.400;10.886;2023-11-19T00:01:12;2.47;;;1.60;;
49450;SDS011;35336;48.400;10.886;2023-11-19T00:01:29;2.35;;;1.60;;
49450;SDS011;35336;48.400;10.886;2023-11-19T00:01:47;1.88;;;1.67;;
49450;SDS011;35336;48.400;10.886;2023-11-19T00:02:02;1.77;;;1.67;;
49450;SDS011;35336;48.400;10.886;2023-11-19T00:02:17;2.00;;;1.60;;
49450;SDS011;35336;48.400;10.886;2023-11-19T00:02:32;2.40;;;1.60;;
49450;SDS011;35336;48.400;10.886;2023-11-19T00:02:50;2.10;;;1.40;;
49450;SDS011;35336;48.400;10.886;2023-11-19T00:03:05;2.95;;;1.65;;
49450;SDS011;35336;48.400;10.886;2023-11-19T00:03:20;2.57;;;1.60;;
49450;SDS011;35336;48.400;10.886;2023-11-19T00:03:39;2.70;;;1.60;;
49450;SDS011;35336;48.400;10.886;2023-11-19T00:03:54;2.78;;;1.75;;
49450;SDS011;35336;48.400;10.886;2023-11-19T00:04:11;2.37;;;1.80;;
49450;SDS011;35336;48.400;10.886;2023-11-19T00:04:27;1.92;;;1.73;;
49450;SDS011;35336;48.400;10.886;2023-11-19T00:04:42;2.40;;;1.60;;
49450;SDS011;35336;48.400;10.886;2023-11-19T00:04:57;1.97;;;1.57;;
49450;SDS011;35336;48.400;10.886;2023-11-19T00:05:15;1.73;;;1.63;;
49450;SDS011;35336;48.400;10.886;2023-11-19T00:05:30;2.27;;;1.60;;
49450;SDS011;35336;48.400;10.886;2023-11-19T00:05:48;2.22;;;1.58;;
49450;SDS011;35336;48.400;10.886;2023-11-19T00:06:03;1.70;;;1.60;;
49450;SDS011;35336;48.400;10.886;2023-11-19T00:06:18;1.60;;;1.50;;
49450;SDS011;35336;48.400;10.886;2023-11-19T00:06:36;2.13;;;1.60;;
49450;SDS011;35336;48.400;10.886;2023-11-19T00:06:51;2.72;;;1.70;;
49450;SDS011;35336;48.400;10.886;2023-11-19T00:07:06;2.97;;;1.60;;
49450;SDS011;35336;48.400;10.886;2023-11-19T00:07:22;2.33;;;1.50;;
49450;SDS011;35336;48.400;10.886;2023-11-19T00:07:37;1.80;;;1.58;;
49450;SDS011;35336;48.400;10.886;2023-11-19T00:07:53;2.77;;;1.60;;
49450;SDS011;35336;48.400;10.886;2023-11-19T00:08:10;3.08;;;1.70;;
49450;SDS011;35336;48.400;10.886;2023-11-19T00:08:26;1.83;;;1.65;;
49450;SDS011;35336;48.400;10.886;2023-11-19T00:08:41;3.63;;;1.80;;
49450;SDS011;35336;48.400;10.886;2023-11-19T00:08:56;4.00;;;1.90;;
49450;SDS011;35336;48.400;10.886;2023-11-19T00:09:11;2.10;;;1.80;;
49450;SDS011;35336;48.400;10.886;2023-11-19T00:09:27;1.87;;;1.63;;
49450;SDS011;35336;48.400;10.886;2023-11-19T00:09:42;2.23;;;1.70;;
49450;SDS011;35336;48.400;10.886;2023-11-19T00:09:57;2.23;;;1.70;;
49450;SDS011;35336;48.400;10.886;2023-11-19T00:10:13;2.20;;;1.60;;
49450;SDS011;35336;48.400;10.886;2023-11-19T00:10:29;3.22;;;1.80;;
49450;SDS011;35336;48.400;10.886;2023-11-19T00:10:45;3.50;;;1.60;;
49450;SDS011;35336;48.400;10.886;2023-11-19T00:11:00;2.47;;;1.70;;
49450;SDS011;35336;48.400;10.886;2023-11-19T00:11:18;2.25;;;1.90;;
49450;SDS011;35336;48.400;10.886;2023-11-19T00:11:33;3.30;;;1.90;;
49450;SDS011;35336;48.400;10.886;2023-11-19T00:11:48;2.97;;;1.80;;
49450;SDS011;35336;48.400;10.886;2023-11-19T00:12:04;2.07;;;1.87;;
49450;SDS011;35336;48.400;10.886;2023-11-19T00:12:20;3.63;;;2.00;;
49450;SDS011;35336;48.400;10.886;2023-11-19T00:12:38;3.47;;;2.00;;
49450;SDS011;35336;48.400;10.886;2023-11-19T00:12:56;2.40;;;1.80;;
49450;SDS011;35336;48.400;10.886;2023-11-19T00:13:12;2.63;;;1.80;;
49450;SDS011;35336;48.400;10.886;2023-11-19T00:13:27;2.63;;;1.80;;
49450;SDS011;35336;48.400;10.886;2023-11-19T00:13:42;3.00;;;2.00;;
49450;SDS011;35336;48.400;10.886;2023-11-19T00:13:58;2.57;;;2.00;;
49450;SDS011;35336;48.400;10.886;2023-11-19T00:14:15;2.70;;;1.80;;
49450;SDS011;35336;48.400;10.886;2023-11-19T00:14:30;2.45;;;1.88;;
49450;SDS011;35336;48.400;10.886;2023-11-19T00:14:46;1.93;;;1.70;;
49450;SDS011;35336;48.400;10.886;2023-11-19T00:15:01;2.50;;;1.70;;
49450;SDS011;35336;48.400;10.886;2023-11-19T00:15:16;2.90;;;1.80;;
49450;SDS011;35336;48.400;10.886;2023-11-19T00:15:32;2.83;;;2.00;;
49450;SDS011;35336;48.400;10.886;2023-11-19T00:15:48;3.10;;;2.15;;
49450;SDS011;35336;48.400;10.886;2023-11-19T00:16:03;2.30;;;1.92;;
49450;SDS011;35336;48.400;10.886;2023-11-19T00:16:18;2.13;;;1.77;;
49450;SDS011;35336;48.400;10.886;2023-11-19T00:16:36;2.87;;;1.80;;
49450;SDS011;35336;48.400;10.886;2023-11-19T00:16:51;2.65;;;1.98;;
49450;SDS011;35336;48.400;10.886;2023-11-19T00:17:07;2.63;;;1.90;;
49450;SDS011;35336;48.400;10.886;2023-11-19T00:17:22;2.70;;;1.90;;
49450;SDS011;35336;48.400;10.886;2023-11-19T00:17:37;3.00;;;2.08;;
49450;SDS011;35336;48.400;10.886;2023-11-19T00:17:53;2.33;;;1.98;;
49450;SDS011;35336;48.400;10.886;2023-11-19T00:18:09;2.07;;;1.87;;
49450;SDS011;35336;48.400;10.886;2023-11-19T00:18:24;2.00;;;1.80;;
49450;SDS011;35336;48.400;10.886;2023-11-19T00:18:39;2.03;;;1.83;;
49450;SDS011;35336;48.400;10.886;2023-11-19T00:18:57;2.10;;;1.90;;
49450;SDS011;35336;48.400;10.886;2023-11-19T00:19:12;2.35;;;2.05;;
49450;SDS011;35336;48.400;10.886;2023-11-19T00:19:30;2.72;;;2.03;;
49450;SDS011;35336;48.400;10.886;2023-11-19T00:19:45;3.00;;;2.05;;
49450;SDS011;35336;48.400;10.886;2023-11-19T00:20:00;2.40;;;1.90;;
49450;SDS011;35336;48.400;10.886;2023-11-19T00:20:16;2.10;;;1.80;;
49450;SDS011;35336;48.400;10.886;2023-11-19T00:20:32;2.03;;;1.80;;
49450;SDS011;35336;48.400;10.886;2023-11-19T00:20:48;2.07;;;1.90;;
49450;SDS011;35336;48.400;10.886;2023-11-19T00:21:05;2.20;;;2.00;;
49450;SDS011;35336;48.400;10.886;2023-11-19T00:21:21;2.63;;;2.10;;
49450;SDS011;35336;48.400;10.886;2023-11-19T00:21:36;2.27;;;2.07;;
49450;SDS011;35336;48.400;10.886;2023-11-19T00:21:53;2.07;;;1.97;;
49450;SDS011;35336;48.400;10.886;2023-11-19T00:22:11;2.13;;;1.92;;
49450;SDS011;35336;48.400;10.886;2023-11-19T00:22:26;1.85;;;1.75;;
49450;SDS011;35336;48.400;10.886;2023-11-19T00:22:42;3.60;;;1.80;;
49450;SDS011;35336;48.400;10.886;2023-11-19T00:22:57;4.20;;;2.00;;
49450;SDS011;35336;48.400;10.886;2023-11-19T00:23:13;2.70;;;2.00;;
49450;SDS011;35336;48.400;10.886;2023-11-19T00:23:28;2.43;;;2.00;;
49450;SDS011;35336;48.400;10.886;2023-11-19T00:23:43;2.20;;;2.00;;
49450;SDS011;35336;48.400;10.886;2023-11-19T00:23:58;2.10;;;1.90;;
49450;SDS011;35336;48.400;10.886;2023-11-19T00:24:14;2.80;;;2.00;;
49450;SDS011;35336;48.400;10.886;2023-11-19T00:24:29;2.90;;;2.20;;
49450;SDS011;35336;48.400;10.886;2023-11-19T00:24:45;2.40;;;2.20;;
49450;SDS011;35336;48.400;10.886;2023-11-19T00:25:00;2.17;;;1.97;;
49450;SDS011;35336;48.400;10.886;2023-11-19T00:25:15;2.47;;;2.00;;
49450;SDS011;35336;48.400;10.886;2023-11-19T00:25:30;3.30;;;2.17;;
49450;SDS011;35336;48.400;10.886;2023-11-19T00:25:46;2.87;;;2.10;;
49450;SDS011;35336;48.400;10.886;2023-11-19T00:26:03;2.50;;;2.13;;
49450;SDS011;35336;48.400;10.886;2023-11-19T00:26:19;2.78;;;2.22;;
49450;SDS011;35336;48.400;10.886;2023-11-19T00:26:37;3.20;;;2.20;;
49450;SDS011;35336;48.400;10.886;2023-11-19T00:26:52;3.72;;;2.22;;
49450;SDS011;35336;48.400;10.886;2023-11-19T00:27:10;4.60;;;2.50;;
49450;SDS011;35336;48.400;10.886;2023-11-19T00:27:25;5.30;;;2.70;;
49450;SDS011;35336;48.400;10.886;2023-11-19T00:27:40;4.10;;;2.80;;
49450;SDS011;35336;48.400;10.886;2023-11-19T00:27:58;3.80;;;2.70;;
49450;SDS011;35336;48.400;10.886;2023-11-19T00:28:13;4.53;;;2.80;;
49450;SDS011;35336;48.400;10.886;2023-11-19T00:28:28;3.83;;;2.67;;
49450;SDS011;35336;48.400;10.886;2023-11-19T00:28:44;3.40;;;2.50;;
49450;SDS011;35336;48.400;10.886;2023-11-19T00:28:59;4.00;;;2.50;;
49450;SDS011;35336;48.400;10.886;2023-11-19T00:29:15;4.38;;;2.50;;
49450;SDS011;35336;48.400;10.886;2023-11-19T00:29:30;3.40;;;2.20;;
49450;SDS011;35336;48.400;10.886;2023-11-19T00:29:45;2.20;;;2.00;;
49450;SDS011;35336;48.400;10.886;2023-11-19T00:30:00;2.25;;;2.05;;
49450;SDS011;35336;48.400;10.886;2023-11-19T00:30:16;2.90;;;2.27;;
49450;SDS011;35336;48.400;10.886;2023-11-19T00:30:31;3.27;;;2.30;;
49450;SDS011;35336;48.400;10.886;2023-11-19T00:30:46;2.90;;;2.10;;
49450;SDS011;35336;48.400;10.886;2023-11-19T00:31:01;2.40;;;1.90;;
49450;SDS011;35336;48.400;10.886;2023-11-19T00:31:17;2.15;;;1.95;;
49450;SDS011;35336;48.400;10.886;2023-11-19T00:31:32;2.83;;;2.17;;
49450;SDS011;35336;48.400;10.886;2023-11-19T00:31:47;3.33;;;2.10;;
49450;SDS011;35336;48.400;10.886;2023-11-19T00:32:05;3.35;;;2.00;;
49450;SDS011;35336;48.400;10.886;2023-11-19T00:32:23;2.90;;;2.08;;
49450;SDS011;35336;48.400;10.886;2023-11-19T00:32:41;2.60;;;2.17;;
49450;SDS011;35336;48.400;10.886;2023-11-19T00:32:56;2.95;;;2.10;;
49450;SDS011;35336;48.400;10.886;2023-11-19T00:33:12;2.53;;;2.17;;
49450;SDS011;35336;48.400;10.886;2023-11-19T00:33:27;2.30;;;2.10;;
49450;SDS011;35336;48.400;10.886;2023-11-19T00:33:42;2.15;;;1.95;;
49450;SDS011;35336;48.400;10.886;2023-11-19T00:33:57;2.30;;;2.10;;
49450;SDS011;35336;48.400;10.886;2023-11-19T00:34:15;2.38;;;2.17;;
49450;SDS011;35336;48.400;10.886;2023-11-19T00:34:30;2.37;;;2.17;;
49450;SDS011;35336;48.400;10.886;2023-11-19T00:34:45;2.22;;;2.03;;
49450;SDS011;35336;48.400;10.886;2023-11-19T00:35:00;1.90;;;1.80;;
49450;SDS011;35336;48.400;10.886;2023-11-19T00:35:18;1.90;;;1.80;;
49450;SDS011;35336;48.400;10.886;2023-11-19T00:35:33;2.58;;;2.20;;
49450;SDS011;35336;48.400;10.886;2023-11-19T00:35:49;3.10;;;2.20;;
49450;SDS011;35336;48.400;10.886;2023-11-19T00:36:04;2.87;;;2.07;;
49450;SDS011;35336;48.400;10.886;2023-11-19T00:36:20;2.72;;;1.95;;
49450;SDS011;35336;48.400;10.886;2023-11-19T00:36:35;2.57;;;1.90;;
49450;SDS011;35336;48.400;10.886;2023-11-19T00:36:53;3.38;;;2.00;;
49450;SDS011;35336;48.400;10.886;2023-11-19T00:37:08;3.27;;;2.10;;
49450;SDS011;35336;48.400;10.886;2023-11-19T00:37:23;2.43;;;2.10;;
49450;SDS011;35336;48.400;10.886;2023-11-19T00:37:38;2.60;;;2.00;;
49450;SDS011;35336;48.400;10.886;2023-11-19T00:37:54;2.60;;;2.00;;
49450;SDS011;35336;48.400;10.886;2023-11-19T00:38:09;2.20;;;2.00;;
49450;SDS011;35336;48.400;10.886;2023-11-19T00:38:24;3.93;;;2.20;;
49450;SDS011;35336;48.400;10.886;2023-11-19T00:38:39;3.70;;;2.10;;
49450;SDS011;35336;48.400;10.886;2023-11-19T00:38:55;2.13;;;1.93;;
49450;SDS011;35336;48.400;10.886;2023-11-19T00:39:12;2.35;;;2.10;;
49450;SDS011;35336;48.400;10.886;2023-11-19T00:39:27;3.17;;;2.30;;
49450;SDS011;35336;48.400;10.886;2023-11-19T00:39:45;2.77;;;2.07;;
49450;SDS011;35336;48.400;10.886;2023-11-19T00:40:00;2.50;;;1.90;;
49450;SDS011;35336;48.400;10.886;2023-11-19T00:40:17;3.53;;;2.10;;
49450;SDS011;35336;48.400;10.886;2023-11-19T00:40:33;2.95;;;2.10;;
49450;SDS011;35336;48.400;10.886;2023-11-19T00:40:48;3.40;;;2.00;;
49450;SDS011;35336;48.400;10.886;2023-11-19T00:41:03;3.40;;;2.10;;
49450;SDS011;35336;48.400;10.886;2023-11-19T00:41:19;2.33;;;1.98;;
49450;SDS011;35336;48.400;10.886;2023-11-19T00:41:36;2.72;;;1.83;;
49450;SDS011;35336;48.400;10.886;2023-11-19T00:41:52;2.13;;;1.87;;
49450;SDS011;35336;48.400;10.886;2023-11-19T00:42:07;2.20;;;2.00;;
49450;SDS011;35336;48.400;10.886;2023-11-19T00:42:22;3.00;;;2.10;;
49450;SDS011;35336;48.400;10.886;2023-11-19T00:42:38;2.75;;;2.00;;
49450;SDS011;35336;48.400;10.886;2023-11-19T00:42:53;2.10;;;1.90;;
49450;SDS011;35336;48.400;10.886;2023-11-19T00:43:08;2.10;;;1.90;;
49450;SDS011;35336;48.400;10.886;2023-11-19T00:43:23;2.33;;;1.90;;
49450;SDS011;35336;48.400;10.886;2023-11-19T00:43:39;2.47;;;1.90;;
49450;SDS011;35336;48.400;10.886;2023-11-19T00:43:54;3.20;;;1.98;;
49450;SDS011;35336;48.400;10.886;2023-11-19T00:44:12;3.60;;;2.10;;
49450;SDS011;35336;48.400;10.886;2023-11-19T00:44:27;2.90;;;2.15;;
49450;SDS011;35336;48.400;10.886;2023-11-19T00:44:42;2.90;;;2.20;;
49450;SDS011;35336;48.400;10.886;2023-11-19T00:44:57;2.57;;;2.10;;
49450;SDS011;35336;48.400;10.886;2023-11-19T00:45:15;2.15;;;1.95;;
49450;SDS011;35336;48.400;10.886;2023-11-19T00:45:31;2.33;;;2.10;;
49450;SDS011;35336;48.400;10.886;2023-11-19T00:45:46;2.70;;;2.03;;
49450;SDS011;35336;48.400;10.886;2023-11-19T00:46:01;2.47;;;1.97;;
49450;SDS011;35336;48.400;10.886;2023-11-19T00:46:19;2.25;;;2.03;;
49450;SDS011;35336;48.400;10.886;2023-11-19T00:46:34;2.40;;;2.20;;
49450;SDS011;35336;48.400;10.886;2023-11-19T00:46:50;2.50;;;2.10;;
49450;SDS011;35336;48.400;10.886;2023-11-19T00:47:05;2.80;;;2.10;;
49450;SDS011;35336;48.400;10.886;2023-11-19T00:47:23;2.77;;;2.07;;
49450;SDS011;35336;48.400;10.886;2023-11-19T00:47:38;2.80;;;2.03;;
49450;SDS011;35336;48.400;10.886;2023-11-19T00:47:53;3.07;;;2.20;;
49450;SDS011;35336;48.400;10.886;2023-11-19T00:48:08;2.40;;;2.17;;
49450;SDS011;35336;48.400;10.886;2023-11-19T00:48:24;2.00;;;1.90;;
49450;SDS011;35336;48.400;10.886;2023-11-19T00:48:39;1.92;;;1.77;;
49450;SDS011;35336;48.400;10.886;2023-11-19T00:48:54;2.13;;;1.90;;
49450;SDS011;35336;48.400;10.886;2023-11-19T00:49:10;2.37;;;1.97;;
49450;SDS011;35336;48.400;10.886;2023-11-19T00:49:25;2.87;;;1.97;;
49450;SDS011;35336;48.400;10.886;2023-11-19T00:49:40;3.58;;;1.92;;
49450;SDS011;35336;48.400;10.886;2023-11-19T00:49:58;4.40;;;2.10;;
49450;SDS011;35336;48.400;10.886;2023-11-19T00:50:16;4.03;;;2.30;;
49450;SDS011;35336;48.400;10.886;2023-11-19T00:50:31;2.45;;;2.20;;
49450;SDS011;35336;48.400;10.886;2023-11-19T00:50:48;2.40;;;1.92;;
49450;SDS011;35336;48.400;10.886;2023-11-19T00:51:04;2.28;;;1.88;;
49450;SDS011;35336;48.400;10.886;2023-11-19T00:51:22;2.63;;;2.10;;
49450;SDS011;35336;48.400;10.886;2023-11-19T00:51:40;2.67;;;2.20;;
49450;SDS011;35336;48.400;10.886;2023-11-19T00:51:55;2.40;;;2.07;;
49450;SDS011;35336;48.400;10.886;2023-11-19T00:52:13;2.30;;;1.93;;
49450;SDS011;35336;48.400;10.886;2023-11-19T00:52:28;2.53;;;2.00;;
49450;SDS011;35336;48.400;10.886;2023-11-19T00:52:43;2.40;;;2.20;;
49450;SDS011;35336;48.400;10.886;2023-11-19T00:52:58;2.40;;;2.20;;
49450;SDS011;35336;48.400;10.886;2023-11-19T00:53:14;2.20;;;2.00;;
49450;SDS011;35336;48.400;10.886;2023-11-19T00:53:29;2.17;;;1.98;;
49450;SDS011;35336;48.400;10.886;2023-11-19T00:53:45;3.17;;;2.07;;
49450;SDS011;35336;48.400;10.886;2023-11-19T00:54:02;3.13;;;2.10;;
49450;SDS011;35336;48.400;10.886;2023-11-19T00:54:18;2.23;;;2.00;;
49450;SDS011;35336;48.400;10.886;2023-11-19T00:54:33;2.53;;;2.05;;
49450;SDS011;35336;48.400;10.886;2023-11-19T00:54:53;2.95;;;2.15;;
49450;SDS011;35336;48.400;10.886;2023-11-19T00:55:09;3.13;;;2.13;;
49450;SDS011;35336;48.400;10.886;2023-11-19T00:55:26;2.53;;;1.83;;
49450;SDS011;35336;48.400;10.886;2023-11-19T00:55:41;2.20;;;1.80;;
49450;SDS011;35336;48.400;10.886;2023-11-19T00:55:59;2.00;;;1.75;;
49450;SDS011;35336;48.400;10.886;2023-11-19T00:56:15;2.28;;;1.80;;
49450;SDS011;35336;48.400;10.886;2023-11-19T00:56:30;2.07;;;1.80;;
49450;SDS011;35336;48.400;10.886;2023-11-19T00:56:45;2.80;;;1.93;;
49450;SDS011;35336;48.400;10.886;2023-11-19T00:57:00;3.60;;;2.00;;
49450;SDS011;35336;48.400;10.886;2023-11-19T00:57:16;2.93;;;2.10;;
49450;SDS011;35336;48.400;10.886;2023-11-19T00:57:31;2.83;;;2.17;;
49450;SDS011;35336;48.400;10.886;2023-11-19T00:57:46;4.30;;;2.27;;
49450;SDS011;35336;48.400;10.886;2023-11-19T00:58:01;4.00;;;2.17;;
49450;SDS011;35336;48.400;10.886;2023-11-19T00:58:17;2.42;;;2.08;;
49450;SDS011;35336;48.400;10.886;2023-11-19T00:58:32;2.90;;;2.00;;
49450;SDS011;35336;48.400;10.886;2023-11-19T00:58:47;2.80;;;1.90;;
49450;SDS011;35336;48.400;10.886;2023-11-19T00:59:02;2.60;;;2.00;;
49450;SDS011;35336;48.400;10.886;2023-11-19T00:59:18;3.10;;;2.20;;
49450;SDS011;35336;48.400;10.886;2023-11-19T00:59:34;3.00;;;2.10;;
49450;SDS011;35336;48.400;10.886;2023-11-19T00:59:49;2.60;;;2.08;;
49450;SDS011;35336;48.400;10.886;2023-11-19T01:00:05;2.80;;;2.10;;
49450;SDS011;35336;48.400;10.886;2023-11-19T01:00:21;3.15;;;2.10;;
49450;SDS011;35336;48.400;10.886;2023-11-19T01:00:38;3.73;;;2.10;;
49450;SDS011;35336;48.400;10.886;2023-11-19T01:00:53;3.30;;;2.05;;
49450;SDS011;35336;48.400;10.886;2023-11-19T01:01:11;2.27;;;1.90;;
49450;SDS011;35336;48.400;10.886;2023-11-19T01:01:26;2.35;;;2.03;;
49450;SDS011;35336;48.400;10.886;2023-11-19T01:01:44;2.55;;;2.00;;
49450;SDS011;35336;48.400;10.886;2023-11-19T01:02:00;2.35;;;1.80;;
49450;SDS011;35336;48.400;10.886;2023-11-19T01:02:15;2.23;;;1.97;;
49450;SDS011;35336;48.400;10.886;2023-11-19T01:02:33;2.53;;;2.03;;
49450;SDS011;35336;48.400;10.886;2023-11-19T01:02:48;2.65;;;2.00;;
49450;SDS011;35336;48.400;10.886;2023-11-19T01:03:03;3.43;;;1.90;;
49450;SDS011;35336;48.400;10.886;2023-11-19T01:03:19;3.47;;;2.00;;
49450;SDS011;35336;48.400;10.886;2023-11-19T01:03:34;2.60;;;2.03;;
49450;SDS011;35336;48.400;10.886;2023-11-19T01:03:49;2.63;;;1.90;;
49450;SDS011;35336;48.400;10.886;2023-11-19T01:04:04;2.83;;;1.90;;
49450;SDS011;35336;48.400;10.886;2023-11-19T01:04:20;2.55;;;2.05;;
49450;SDS011;35336;48.400;10.886;2023-11-19T01:04:35;2.23;;;2.03;;
49450;SDS011;35336;48.400;10.886;2023-11-19T01:04:51;2.60;;;2.20;;
49450;SDS011;35336;48.400;10.886;2023-11-19T01:05:07;2.97;;;2.37;;
49450;SDS011;35336;48.400;10.886;2023-11-19T01:05:25;2.78;;;2.05;;
49450;SDS011;35336;48.400;10.886;2023-11-19T01:05:43;2.78;;;2.00;;
49450;SDS011;35336;48.400;10.886;2023-11-19T01:06:01;2.20;;;1.80;;
49450;SDS011;35336;48.400;10.886;2023-11-19T01:06:26;2.30;;;1.70;;
49450;SDS011;35336;48.400;10.886;2023-11-19T01:06:44;2.57;;;2.00;;
49450;SDS011;35336;48.400;10.886;2023-11-19T01:06:59;3.88;;;2.20;;
49450;SDS011;35336;48.400;10.886;2023-11-19T01:07:19;3.65;;;2.20;;
49450;SDS011;35336;48.400;10.886;2023-11-19T01:07:34;3.28;;;2.33;;
49450;SDS011;35336;48.400;10.886;2023-11-19T01:07:49;3.00;;;2.33;;
49450;SDS011;35336;48.400;10.886;2023-11-19T01:08:07;3.28;;;2.28;;
49450;SDS011;35336;48.400;10.886;2023-11-19T01:08:22;2.93;;;2.10;;
49450;SDS011;35336;48.400;10.886;2023-11-19T01:08:38;2.50;;;2.00;;
49450;SDS011;35336;48.400;10.886;2023-11-19T01:08:53;2.70;;;2.00;;
49450;SDS011;35336;48.400;10.886;2023-11-19T01:09:10;2.43;;;1.90;;
49450;SDS011;35336;48.400;10.886;2023-11-19T01:09:26;1.85;;;1.70;;
49450;SDS011;35336;48.400;10.886;2023-11-19T01:09:41;1.83;;;1.70;;
49450;SDS011;35336;48.400;10.886;2023-11-19T01:09:57;2.30;;;1.98;;
49450;SDS011;35336;48.400;10.886;2023-11-19T01:10:12;2.37;;;2.00;;
49450;SDS011;35336;48.400;10.886;2023-11-19T01:10:30;2.17;;;1.90;;
49450;SDS011;35336;48.400;10.886;2023-11-19T01:10:46;2.75;;;2.10;;
49450;SDS011;35336;48.400;10.886;2023-11-19T01:11:06;2.45;;;2.22;;
49450;SDS011;35336;48.400;10.886;2023-11-19T01:11:33;2.72;;;2.40;;
49450;SDS011;35336;48.400;10.886;2023-11-19T01:11:49;2.93;;;2.27;;
49450;SDS011;35336;48.400;10.886;2023-11-19T01:12:04;2.50;;;2.10;;
49450;SDS011;35336;48.400;10.886;2023-11-19T01:12:20;2.25;;;1.98;;
49450;SDS011;35336;48.400;10.886;2023-11-19T01:12:35;3.00;;;2.07;;
49450;SDS011;35336;48.400;10.886;2023-11-19T01:12:50;2.80;;;2.00;;
49450;SDS011;35336;48.400;10.886;2023-11-19T01:13:06;2.05;;;1.85;;
49450;SDS011;35336;48.400;10.886;2023-11-19T01:13:26;1.90;;;1.80;;
49450;SDS011;35336;48.400;10.886;2023-11-19T01:13:41;2.50;;;1.90;;
49450;SDS011;35336;48.400;10.886;2023-11-19T01:13:57;2.72;;;2.00;;
49450;SDS011;35336;48.400;10.886;2023-11-19T01:14:12;1.90;;;1.80;;
49450;SDS011;35336;48.400;10.886;2023-11-19T01:14:27;1.80;;;1.70;;
49450;SDS011;35336;48.400;10.886;2023-11-19T01:14:43;3.20;;;1.90;;
49450;SDS011;35336;48.400;10.886;2023-11-19T01:15:00;3.30;;;1.90;;
49450;SDS011;35336;48.400;10.886;2023-11-19T01:15:18;2.00;;;1.80;;
49450;SDS011;35336;48.400;10.886;2023-11-19T01:15:33;2.25;;;1.85;;
49450;SDS011;35336;48.400;10.886;2023-11-19T01:15:51;2.53;;;1.88;;
49450;SDS011;35336;48.400;10.886;2023-11-19T01:16:08;2.10;;;1.80;;
49450;SDS011;35336;48.400;10.886;2023-11-19T01:16:26;2.03;;;1.80;;
49450;SDS011;35336;48.400;10.886;2023-11-19T01:16:41;2.10;;;1.90;;
49450;SDS011;35336;48.400;10.886;2023-11-19T01:16:57;2.20;;;2.00;;
49450;SDS011;35336;48.400;10.886;2023-11-19T01:17:12;2.23;;;2.03;;
49450;SDS011;35336;48.400;10.886;2023-11-19T01:17:29;2.38;;;1.98;;
49450;SDS011;35336;48.400;10.886;2023-11-19T01:17:45;2.65;;;1.92;;
49450;SDS011;35336;48.400;10.886;2023-11-19T01:18:02;2.73;;;1.93;;
49450;SDS011;35336;48.400;10.886;2023-11-19T01:18:17;2.45;;;1.92;;
49450;SDS011;35336;48.400;10.886;2023-11-19T01:18:33;2.60;;;2.15;;
49450;SDS011;35336;48.400;10.886;2023-11-19T01:18:48;2.70;;;2.00;;
49450;SDS011;35336;48.400;10.886;2023-11-19T01:19:03;2.20;;;1.70;;
49450;SDS011;35336;48.400;10.886;2023-11-19T01:19:18;2.10;;;1.87;;
49450;SDS011;35336;48.400;10.886;2023-11-19T01:19:34;2.20;;;2.00;;
49450;SDS011;35336;48.400;10.886;2023-11-19T01:19:49;2.10;;;1.90;;
49450;SDS011;35336;48.400;10.886;2023-11-19T01:20:04;2.20;;;1.90;;
49450;SDS011;35336;48.400;10.886;2023-11-19T01:20:22;2.20;;;1.90;;
49450;SDS011;35336;48.400;10.886;2023-11-19T01:20:38;2.15;;;1.92;;
49450;SDS011;35336;48.400;10.886;2023-11-19T01:20:53;3.40;;;1.90;;
49450;SDS011;35336;48.400;10.886;2023-11-19T01:21:08;3.43;;;1.90;;
49450;SDS011;35336;48.400;10.886;2023-11-19T01:21:23;2.27;;;1.90;;
49450;SDS011;35336;48.400;10.886;2023-11-19T01:21:39;2.70;;;1.70;;
49450;SDS011;35336;48.400;10.886;2023-11-19T01:21:54;2.97;;;1.73;;
49450;SDS011;35336;48.400;10.886;2023-11-19T01:22:11;2.30;;;1.80;;
49450;SDS011;35336;48.400;10.886;2023-11-19T01:22:27;2.42;;;1.80;;
49450;SDS011;35336;48.400;10.886;2023-11-19T01:22:42;2.90;;;1.90;;
49450;SDS011;35336;48.400;10.886;2023-11-19T01:23:00;2.33;;;1.65;;
49450;SDS011;35336;48.400;10.886;2023-11-19T01:23:15;2.10;;;1.73;;
49450;SDS011;35336;48.400;10.886;2023-11-19T01:23:30;2.70;;;2.00;;
49450;SDS011;35336;48.400;10.886;2023-11-19T01:23:46;2.83;;;2.00;;
49450;SDS011;35336;48.400;10.886;2023-11-19T01:24:01;2.80;;;2.07;;
49450;SDS011;35336;48.400;10.886;2023-11-19T01:24:16;2.93;;;2.00;;
49450;SDS011;35336;48.400;10.886;2023-11-19T01:24:32;2.67;;;1.92;;
49450;SDS011;35336;48.400;10.886;2023-11-19T01:24:47;3.27;;;2.00;;
49450;SDS011;35336;48.400;10.886;2023-11-19T01:25:03;3.27;;;1.93;;
49450;SDS011;35336;48.400;10.886;2023-11-19T01:25:18;2.40;;;1.80;;
49450;SDS011;35336;48.400;10.886;2023-11-19T01:25:33;4.17;;;1.80;;
49450;SDS011;35336;48.400;10.886;2023-11-19T01:25:51;4.10;;;1.90;;
49450;SDS011;35336;48.400;10.886;2023-11-19T01:26:06;2.25;;;1.85;;
49450;SDS011;35336;48.400;10.886;2023-11-19T01:26:23;1.83;;;1.63;;
49450;SDS011;35336;48.400;10.886;2023-11-19T01:26:38;1.97;;;1.63;;
49450;SDS011;35336;48.400;10.886;2023-11-19T01:26:54;2.50;;;1.70;;
49450;SDS011;35336;48.400;10.886;2023-11-19T01:27:09;3.13;;;1.70;;
49450;SDS011;35336;48.400;10.886;2023-11-19T01:27:24;2.83;;;1.70;;
49450;SDS011;35336;48.400;10.886;2023-11-19T01:27:39;2.07;;;1.80;;
49450;SDS011;35336;48.400;10.886;2023-11-19T01:27:55;2.10;;;1.90;;
49450;SDS011;35336;48.400;10.886;2023-11-19T01:28:10;2.67;;;1.90;;
49450;SDS011;35336;48.400;10.886;2023-11-19T01:28:25;2.90;;;1.87;;
49450;SDS011;35336;48.400;10.886;2023-11-19T01:28:40;2.35;;;1.70;;
49450;SDS011;35336;48.400;10.886;2023-11-19T01:28:56;2.20;;;1.80;;
49450;SDS011;35336;48.400;10.886;2023-11-19T01:29:11;1.97;;;1.80;;
49450;SDS011;35336;48.400;10.886;2023-11-19T01:29:27;1.88;;;1.70;;
49450;SDS011;35336;48.400;10.886;2023-11-19T01:29:42;2.13;;;1.73;;
49450;SDS011;35336;48.400;10.886;2023-11-19T01:29:57;2.17;;;1.80;;
49450;SDS011;35336;48.400;10.886;2023-11-19T01:30:13;1.90;;;1.70;;
49450;SDS011;35336;48.400;10.886;2023-11-19T01:30:30;2.58;;;1.70;;
49450;SDS011;35336;48.400;10.886;2023-11-19T01:30:50;2.80;;;1.80;;
49450;SDS011;35336;48.400;10.886;2023-11-19T01:31:07;2.10;;;1.90;;
49450;SDS011;35336;48.400;10.886;2023-11-19T01:31:23;3.20;;;1.77;;
49450;SDS011;35336;48.400;10.886;2023-11-19T01:31:42;4.45;;;1.80;;
49450;SDS011;35336;48.400;10.886;2023-11-19T01:31:58;3.15;;;1.90;;
49450;SDS011;35336;48.400;10.886;2023-11-19T01:32:16;1.75;;;1.65;;
49450;SDS011;35336;48.400;10.886;2023-11-19T01:32:31;1.90;;;1.80;;
49450;SDS011;35336;48.400;10.886;2023-11-19T01:32:47;2.00;;;1.80;;
49450;SDS011;35336;48.400;10.886;2023-11-19T01:33:02;2.20;;;1.70;;
49450;SDS011;35336;48.400;10.886;2023-11-19T01:33:17;2.07;;;1.70;;
49450;SDS011;35336;48.400;10.886;2023-11-19T01:33:33;2.58;;;1.70;;
49450;SDS011;35336;48.400;10.886;2023-11-19T01:33:50;2.77;;;1.80;;
49450;SDS011;35336;48.400;10.886;2023-11-19T01:34:05;2.20;;;1.73;;
49450;SDS011;35336;48.400;10.886;2023-11-19T01:34:21;2.03;;;1.73;;
49450;SDS011;35336;48.400;10.886;2023-11-19T01:34:38;2.90;;;1.80;;